createdAt,value
2019-05-17T00:02:13.534Z,96.30
2019-05-17T00:04:40.277Z,96.00
2019-05-17T00:07:07.058Z,96.00
2019-05-17T00:09:33.988Z,96.20
2019-05-17T00:12:00.729Z,96.40
2019-05-17T00:14:27.408Z,96.60
2019-05-17T00:16:54.156Z,96.90
2019-05-17T00:19:20.902Z,96.80
2019-05-17T00:21:47.664Z,96.60
2019-05-17T00:24:15.394Z,96.60
2019-05-17T00:26:42.137Z,96.90
2019-05-17T00:29:08.899Z,97.30
2019-05-17T00:31:36.958Z,97.50
2019-05-17T00:34:03.874Z,97.80
2019-05-17T00:36:30.664Z,97.80
2019-05-17T00:38:57.411Z,97.70
2019-05-17T00:41:26.722Z,97.70
2019-05-17T00:43:52.825Z,97.70
2019-05-17T00:46:20.581Z,97.90
2019-05-17T00:48:47.244Z,97.80
2019-05-17T00:51:14.030Z,97.70
2019-05-17T00:53:40.835Z,97.40
2019-05-17T00:56:07.484Z,97.50
2019-05-17T00:58:34.243Z,97.50
2019-05-17T01:01:00.976Z,97.50
2019-05-17T01:03:27.763Z,97.50
2019-05-17T01:05:56.679Z,97.50
2019-05-17T01:08:23.108Z,97.60
2019-05-17T01:10:49.890Z,97.50
2019-05-17T01:13:17.261Z,97.80
2019-05-17T01:15:44.287Z,97.70
2019-05-17T01:18:11.333Z,97.80
2019-05-17T01:20:38.111Z,97.80
2019-05-17T01:23:07.283Z,97.90
2019-05-17T01:25:36.686Z,97.80
2019-05-17T01:28:03.090Z,98.00
2019-05-17T01:30:29.998Z,98.30
2019-05-17T01:32:57.142Z,98.40
2019-05-17T01:35:26.218Z,98.30
2019-05-17T01:37:52.498Z,98.20
2019-05-17T01:40:19.158Z,98.50
2019-05-17T01:42:46.617Z,98.20
2019-05-17T01:45:16.441Z,98.10
2019-05-17T01:47:42.608Z,98.20
2019-05-17T01:50:09.811Z,98.40
2019-05-17T01:52:37.103Z,98.50
2019-05-17T01:55:06.592Z,98.30
2019-05-17T01:57:33.515Z,98.30
2019-05-17T02:00:01.593Z,98.60
2019-05-17T02:05:18.758Z,98.70
2019-05-17T02:08:06.411Z,98.80
2019-05-17T02:10:32.286Z,98.60
2019-05-17T02:12:59.086Z,98.60
2019-05-17T02:15:26.756Z,98.70
2019-05-17T02:17:53.712Z,98.80
2019-05-17T02:20:20.615Z,98.90
2019-05-17T02:22:47.645Z,98.90
2019-05-17T02:25:16.760Z,99.00
2019-05-17T02:27:44.755Z,99.10
2019-05-17T02:30:14.343Z,99.20
2019-05-17T02:32:43.168Z,99.20
2019-05-17T02:35:13.814Z,99.10
2019-05-17T02:37:38.943Z,99.10
2019-05-17T02:40:08.386Z,99.30
2019-05-17T02:42:34.614Z,99.20
2019-05-17T02:45:03.001Z,99.70
2019-05-17T02:47:33.336Z,99.30
2019-05-17T02:49:58.823Z,99.20
2019-05-17T02:52:25.503Z,99.10
2019-05-17T02:54:52.759Z,99.20
2019-05-17T02:57:22.941Z,99.10
2019-05-17T02:59:48.282Z,98.80
2019-05-17T03:02:15.037Z,99.10
2019-05-17T03:04:43.299Z,99.10
2019-05-17T03:07:13.400Z,99.20
2019-05-17T03:09:38.753Z,99.20
2019-05-17T03:12:05.607Z,99.40
2019-05-17T03:14:32.943Z,99.40
2019-05-17T03:17:02.935Z,99.60
2019-05-17T03:19:28.690Z,99.60
2019-05-17T03:21:55.557Z,99.40
2019-05-17T03:24:22.734Z,99.50
2019-05-17T03:26:52.551Z,99.40
2019-05-17T03:29:18.383Z,99.50
2019-05-17T03:31:53.580Z,99.50
2019-05-17T03:34:16.995Z,99.50
2019-05-17T03:36:46.918Z,99.60
2019-05-17T03:39:12.970Z,99.30
2019-05-17T03:41:42.665Z,99.10
2019-05-17T03:44:09.389Z,99.20
2019-05-17T03:46:36.019Z,99.40
2019-05-17T03:49:04.027Z,99.80
2019-05-17T03:51:33.269Z,99.90
2019-05-17T03:54:02.145Z,99.90
2019-05-17T03:56:28.200Z,99.90
2019-05-17T03:58:54.973Z,99.90
2019-05-17T04:01:23.154Z,99.90
2019-05-17T04:03:52.742Z,99.90
2019-05-17T04:06:18.871Z,99.90
2019-05-17T04:08:45.643Z,99.90
2019-05-17T04:11:22.094Z,99.90
2019-05-17T04:13:42.993Z,99.90
2019-05-17T04:16:10.524Z,99.90
2019-05-17T04:18:37.832Z,99.90
2019-05-17T04:21:04.620Z,99.90
2019-05-17T04:23:33.829Z,99.90
2019-05-17T04:26:03.795Z,99.90
2019-05-17T04:28:29.035Z,99.90
2019-05-17T04:30:55.999Z,99.90
2019-05-17T04:33:23.485Z,99.90
2019-05-17T04:35:53.791Z,99.90
2019-05-17T04:38:18.991Z,99.90
2019-05-17T04:40:45.697Z,99.90
2019-05-17T04:43:13.557Z,99.90
2019-05-17T04:45:42.584Z,99.90
2019-05-17T04:48:09.316Z,99.90
2019-05-17T04:50:36.197Z,99.90
2019-05-17T04:53:03.217Z,99.90
2019-05-17T04:55:33.795Z,99.90
2019-05-17T04:57:58.926Z,99.90
2019-05-17T05:00:25.756Z,99.90
2019-05-17T05:02:52.875Z,99.90
2019-05-17T05:05:22.441Z,99.90
2019-05-17T05:07:48.313Z,99.90
2019-05-17T05:10:15.034Z,99.90
2019-05-17T05:12:43.575Z,99.90
2019-05-17T05:15:12.270Z,99.90
2019-05-17T05:17:39.127Z,99.90
2019-05-17T05:20:07.113Z,99.90
2019-05-17T05:22:34.080Z,99.90
2019-05-17T05:25:02.174Z,99.90
2019-05-17T05:27:31.512Z,99.90
2019-05-17T05:29:57.738Z,99.90
2019-05-17T05:32:24.504Z,99.60
2019-05-17T05:34:52.002Z,99.20
2019-05-17T05:37:20.894Z,99.00
2019-05-17T05:39:47.580Z,98.40
2019-05-17T05:42:14.257Z,98.30
2019-05-17T05:44:41.599Z,97.90
2019-05-17T05:47:11.480Z,97.70
2019-05-17T05:49:38.229Z,97.60
2019-05-17T05:52:05.029Z,97.50
2019-05-17T05:54:32.809Z,96.90
2019-05-17T05:57:02.074Z,96.90
2019-05-17T05:59:28.112Z,96.90
2019-05-17T06:01:55.015Z,96.80
2019-05-17T06:04:22.370Z,96.60
2019-05-17T06:06:49.101Z,95.60
2019-05-17T06:09:15.798Z,95.70
2019-05-17T06:11:42.518Z,94.90
2019-05-17T06:14:09.307Z,94.80
2019-05-17T06:16:36.063Z,94.70
2019-05-17T06:19:02.722Z,94.40
2019-05-17T06:21:31.792Z,94.20
2019-05-17T06:23:58.174Z,93.80
2019-05-17T06:26:24.821Z,93.70
2019-05-17T06:28:51.899Z,93.60
2019-05-17T06:31:18.574Z,93.20
2019-05-17T06:33:45.239Z,93.00
2019-05-17T06:36:13.714Z,92.80
2019-05-17T06:38:42.052Z,91.70
2019-05-17T06:41:09.111Z,91.80
2019-05-17T06:43:38.394Z,91.00
2019-05-17T06:46:04.437Z,91.50
2019-05-17T06:48:31.853Z,92.00
2019-05-17T06:50:58.943Z,91.50
2019-05-17T06:53:25.630Z,91.50
2019-05-17T06:55:53.468Z,90.70
2019-05-17T06:58:22.179Z,90.60
2019-05-17T07:00:49.786Z,90.20
2019-05-17T07:03:16.618Z,90.80
2019-05-17T07:05:50.109Z,89.10
2019-05-17T07:08:17.419Z,89.10
2019-05-17T07:10:44.186Z,89.60
2019-05-17T07:13:11.973Z,88.30
2019-05-17T07:15:46.809Z,89.60
2019-05-17T07:18:10.039Z,87.50
2019-05-17T07:20:36.343Z,87.80
2019-05-17T07:23:03.140Z,88.40
2019-05-17T07:25:30.332Z,87.80
2019-05-17T07:27:57.256Z,87.30
2019-05-17T07:30:24.087Z,87.70
2019-05-17T07:32:50.875Z,87.70
2019-05-17T07:35:19.716Z,86.90
2019-05-17T07:37:46.422Z,86.90
2019-05-17T07:40:14.512Z,85.80
2019-05-17T07:42:41.572Z,86.60
2019-05-17T07:45:10.176Z,87.40
2019-05-17T07:47:37.210Z,88.20
2019-05-17T07:50:04.983Z,88.50
2019-05-17T07:52:31.853Z,88.90
2019-05-17T07:55:02.442Z,88.10
2019-05-17T07:57:27.239Z,89.90
2019-05-17T07:59:55.113Z,89.80
2019-05-17T08:02:21.884Z,89.70
2019-05-17T08:04:50.106Z,89.00
2019-05-17T08:07:19.533Z,89.00
2019-05-17T08:09:45.738Z,88.20
2019-05-17T08:12:12.508Z,89.50
2019-05-17T08:14:40.012Z,87.60
2019-05-17T08:17:07.073Z,87.60
2019-05-17T08:19:34.025Z,86.70
2019-05-17T08:22:00.781Z,87.40
2019-05-17T08:24:27.542Z,88.00
2019-05-17T08:26:54.296Z,87.90
2019-05-17T08:29:21.287Z,87.60
2019-05-17T08:31:49.703Z,82.60
2019-05-17T08:34:19.753Z,81.00
2019-05-17T08:36:45.113Z,81.40
2019-05-17T08:39:12.036Z,82.80
2019-05-17T08:41:40.490Z,77.40
2019-05-17T08:44:09.895Z,78.40
2019-05-17T08:46:36.012Z,77.80
2019-05-17T08:49:03.773Z,75.90
2019-05-17T08:51:30.699Z,76.10
2019-05-17T08:53:59.847Z,77.60
2019-05-17T08:56:26.034Z,75.50
2019-05-17T08:58:52.834Z,77.50
2019-05-17T09:01:19.807Z,74.20
2019-05-17T09:03:46.602Z,74.10
2019-05-17T09:06:13.369Z,74.10
2019-05-17T09:08:40.532Z,74.40
2019-05-17T09:11:09.775Z,74.00
2019-05-17T09:13:40.018Z,74.40
2019-05-17T09:16:04.892Z,73.80
2019-05-17T09:18:31.568Z,75.30
2019-05-17T09:21:00.375Z,73.80
2019-05-17T09:23:27.074Z,74.30
2019-05-17T09:25:53.640Z,72.60
2019-05-17T09:28:20.609Z,72.20
2019-05-17T09:30:47.496Z,72.40
2019-05-17T09:33:14.236Z,73.30
2019-05-17T09:35:41.248Z,72.90
2019-05-17T09:38:10.098Z,72.90
2019-05-17T09:40:39.896Z,73.50
2019-05-17T09:43:06.826Z,72.30
2019-05-17T09:45:33.669Z,71.40
2019-05-17T09:48:00.788Z,71.80
2019-05-17T09:50:29.389Z,71.50
2019-05-17T09:52:56.344Z,70.90
2019-05-17T09:55:23.379Z,70.40
2019-05-17T09:57:50.258Z,70.50
2019-05-17T10:00:17.422Z,70.00
2019-05-17T10:02:44.193Z,70.60
2019-05-17T10:05:11.134Z,69.80
2019-05-17T10:07:40.257Z,71.10
2019-05-17T10:10:06.784Z,71.40
2019-05-17T10:12:33.640Z,71.50
2019-05-17T10:15:00.626Z,71.10
2019-05-17T10:17:29.458Z,70.50
2019-05-17T10:19:56.214Z,70.70
2019-05-17T10:22:22.934Z,71.40
2019-05-17T10:24:49.819Z,68.60
2019-05-17T10:27:16.642Z,68.90
2019-05-17T10:29:43.444Z,66.80
2019-05-17T10:32:10.601Z,67.30
2019-05-17T10:34:37.414Z,66.20
2019-05-17T10:37:04.200Z,68.10
2019-05-17T10:39:30.944Z,68.10
2019-05-17T10:41:57.717Z,66.80
2019-05-17T10:44:24.504Z,66.90
2019-05-17T10:46:51.297Z,65.30
2019-05-17T10:49:20.097Z,63.90
2019-05-17T10:51:46.569Z,63.20
2019-05-17T10:54:13.348Z,62.10
2019-05-17T10:56:40.156Z,64.20
2019-05-17T10:59:09.658Z,62.60
2019-05-17T11:01:35.928Z,62.50
2019-05-17T11:04:02.769Z,64.40
2019-05-17T11:06:30.207Z,64.20
2019-05-17T11:08:59.507Z,63.60
2019-05-17T11:11:26.036Z,64.60
2019-05-17T11:13:53.173Z,64.00
2019-05-17T11:16:19.866Z,61.30
2019-05-17T11:18:48.519Z,62.90
2019-05-17T11:21:19.946Z,61.40
2019-05-17T11:23:46.660Z,63.00
2019-05-17T11:26:13.440Z,63.80
2019-05-17T11:28:40.344Z,63.10
2019-05-17T11:31:07.191Z,61.70
2019-05-17T11:33:33.954Z,60.90
2019-05-17T11:36:00.751Z,63.00
2019-05-17T11:38:27.320Z,63.20
2019-05-17T11:40:54.203Z,65.70
2019-05-17T11:43:20.983Z,68.00
2019-05-17T11:45:47.756Z,66.50
2019-05-17T11:48:15.503Z,65.60
2019-05-17T11:50:42.277Z,65.70
2019-05-17T11:53:10.846Z,66.20
2019-05-17T11:55:37.577Z,68.70
2019-05-17T11:58:13.208Z,67.10
2019-05-17T12:00:59.179Z,68.10
2019-05-17T12:03:31.320Z,68.70
2019-05-17T12:06:09.742Z,67.40
2019-05-17T12:09:18.907Z,66.70
2019-05-17T12:15:00.205Z,68.20
2019-05-17T12:17:25.247Z,66.50
2019-05-17T12:20:10.732Z,65.60
2019-05-17T12:22:47.846Z,63.80
2019-05-17T12:25:21.143Z,65.40
2019-05-17T12:31:47.658Z,62.20
2019-05-17T12:34:25.404Z,64.40
2019-05-17T12:37:17.921Z,64.40
2019-05-17T12:43:30.603Z,64.80
2019-05-17T12:49:27.739Z,64.40
2019-05-17T12:58:35.906Z,63.20
2019-05-17T12:58:43.067Z,63.40
2019-05-17T13:09:00.813Z,61.10
2019-05-17T13:10:35.920Z,61.80
2019-05-17T13:13:32.431Z,61.90
2019-05-17T13:16:16.751Z,60.90
2019-05-17T13:18:55.869Z,58.70
2019-05-17T13:21:31.943Z,61.70
2019-05-17T13:23:55.595Z,62.10
2019-05-17T13:26:22.369Z,63.00
2019-05-17T13:28:49.270Z,61.80
2019-05-17T13:31:16.118Z,62.60
2019-05-17T13:33:42.880Z,60.40
2019-05-17T13:36:09.864Z,60.00
2019-05-17T13:38:37.794Z,60.00
2019-05-17T13:41:04.569Z,60.00
2019-05-17T13:43:31.450Z,60.40
2019-05-17T13:45:58.384Z,62.50
2019-05-17T13:48:25.359Z,59.90
2019-05-17T13:50:52.468Z,58.60
2019-05-17T13:53:19.312Z,59.40
2019-05-17T13:55:46.191Z,59.60
2019-05-17T13:58:13.072Z,59.70
2019-05-17T14:00:39.979Z,59.90
2019-05-17T14:03:06.799Z,60.80
2019-05-17T14:05:33.612Z,61.10
2019-05-17T14:08:00.525Z,61.00
2019-05-17T14:10:31.525Z,60.20
2019-05-17T14:12:56.273Z,62.40
2019-05-17T14:15:23.295Z,61.40
2019-05-17T14:17:50.213Z,61.40
2019-05-17T14:20:16.962Z,60.60
2019-05-17T14:22:43.885Z,63.60
2019-05-17T14:25:10.762Z,61.80
2019-05-17T14:27:37.644Z,60.60
2019-05-17T14:30:05.426Z,62.70
2019-05-17T14:32:32.590Z,63.20
2019-05-17T14:34:59.273Z,62.70
2019-05-17T14:37:26.083Z,64.20
2019-05-17T14:39:53.098Z,64.50
2019-05-17T14:42:20.744Z,63.20
2019-05-17T14:44:47.532Z,63.00
2019-05-17T14:47:14.349Z,64.60
2019-05-17T14:49:41.227Z,65.60
2019-05-17T14:52:08.620Z,66.00
2019-05-17T14:54:35.377Z,66.20
2019-05-17T14:57:02.235Z,66.70
2019-05-17T14:59:29.188Z,66.10
2019-05-17T15:01:55.948Z,65.10
2019-05-17T15:04:22.766Z,65.10
2019-05-17T15:06:51.481Z,66.70
2019-05-17T15:09:32.725Z,65.40
2019-05-17T15:13:36.812Z,64.80
2019-05-17T15:15:07.809Z,65.20
2019-05-17T15:17:27.455Z,64.60
2019-05-17T15:20:29.313Z,65.70
2019-05-17T15:23:17.064Z,65.70
2019-05-17T15:26:39.024Z,66.70
2019-05-17T15:28:41.601Z,66.90
2019-05-17T15:31:30.513Z,68.50
2019-05-17T15:46:52.972Z,69.60
2019-05-17T15:49:19.800Z,70.40
2019-05-17T15:51:46.650Z,70.00
2019-05-17T15:54:13.556Z,69.80
2019-05-17T15:56:40.469Z,68.80
2019-05-17T15:59:07.231Z,69.50
2019-05-17T16:01:34.034Z,70.20
2019-05-17T16:04:00.852Z,70.40
2019-05-17T16:06:27.720Z,70.10
2019-05-17T16:08:54.503Z,70.90
2019-05-17T16:11:21.367Z,71.50
2019-05-17T16:13:48.003Z,70.00
2019-05-17T16:16:14.963Z,71.20
2019-05-17T16:18:41.816Z,70.90
2019-05-17T16:21:08.501Z,71.90
2019-05-17T16:23:35.207Z,71.90
2019-05-17T16:26:02.347Z,72.50
2019-05-17T16:28:29.156Z,72.00
2019-05-17T16:30:55.777Z,72.60
2019-05-17T16:33:22.561Z,73.40
2019-05-17T16:35:49.378Z,72.90
2019-05-17T16:38:16.051Z,72.10
2019-05-17T16:40:42.760Z,72.60
2019-05-17T16:43:17.554Z,73.70
2019-05-17T16:45:38.009Z,73.20
2019-05-17T16:48:04.747Z,72.50
2019-05-17T16:50:31.555Z,73.10
2019-05-17T16:53:06.123Z,73.10
2019-05-17T16:55:26.845Z,73.00
2019-05-17T16:57:53.508Z,73.70
2019-05-17T17:00:38.284Z,72.90
2019-05-17T17:03:05.454Z,72.90
2019-05-17T17:05:32.231Z,73.70
2019-05-17T17:07:59.037Z,74.10
2019-05-17T17:10:25.797Z,73.80
2019-05-17T17:12:52.604Z,74.80
2019-05-17T17:15:19.663Z,75.00
2019-05-17T17:17:46.523Z,75.40
2019-05-17T17:20:13.436Z,75.70
2019-05-17T17:22:40.215Z,76.00
2019-05-17T17:25:07.398Z,75.50
2019-05-17T17:27:34.389Z,76.10
2019-05-17T17:30:01.611Z,76.40
2019-05-17T17:32:28.448Z,77.00
2019-05-17T17:34:55.503Z,77.60
2019-05-17T17:37:22.341Z,76.90
2019-05-17T17:39:49.189Z,77.70
2019-05-17T17:42:15.930Z,78.20
2019-05-17T17:44:42.775Z,78.20
2019-05-17T17:47:09.620Z,78.60
2019-05-17T17:49:36.542Z,78.60
2019-05-17T17:52:03.213Z,78.70
2019-05-17T17:54:29.919Z,78.40
2019-05-17T17:56:56.850Z,78.70
2019-05-17T17:59:23.629Z,79.30
2019-05-17T18:01:50.570Z,79.40
2019-05-17T18:04:17.446Z,79.80
2019-05-17T18:06:44.216Z,80.20
2019-05-17T18:09:11.059Z,80.50
2019-05-17T18:11:37.926Z,80.60
2019-05-17T18:14:13.016Z,80.70
2019-05-17T18:16:33.221Z,80.80
2019-05-17T18:19:00.011Z,81.10
2019-05-17T18:21:26.761Z,81.40
2019-05-17T18:23:53.488Z,81.50
2019-05-17T18:26:20.479Z,81.90
2019-05-17T18:28:47.458Z,82.10
2019-05-17T18:31:14.206Z,82.20
2019-05-17T18:33:41.042Z,82.80
2019-05-17T18:36:07.657Z,82.70
2019-05-17T18:38:34.703Z,82.90
2019-05-17T18:41:01.552Z,83.10
2019-05-17T18:43:28.424Z,83.80
2019-05-17T18:45:55.181Z,83.90
2019-05-17T18:48:22.204Z,84.20
2019-05-17T18:50:49.069Z,84.70
2019-05-17T18:53:16.958Z,84.30
2019-05-17T18:55:44.327Z,84.60
2019-05-17T18:58:11.288Z,84.60
2019-05-17T19:00:39.042Z,85.00
2019-05-17T19:03:05.809Z,85.60
2019-05-17T19:05:32.854Z,85.60
2019-05-17T19:07:59.615Z,86.40
2019-05-17T19:10:26.274Z,87.00
2019-05-17T19:12:53.048Z,86.70
2019-05-17T19:15:20.325Z,87.60
2019-05-17T19:17:47.099Z,86.90
2019-05-17T19:20:14.256Z,86.90
2019-05-17T19:22:41.306Z,88.40
2019-05-17T19:25:09.130Z,86.80
2019-05-17T19:27:35.855Z,87.00
2019-05-17T19:30:04.963Z,87.40
2019-05-17T19:32:31.942Z,87.30
2019-05-17T19:34:58.602Z,87.50
2019-05-17T19:37:25.348Z,87.80
2019-05-17T19:39:52.007Z,88.10
2019-05-17T19:42:18.664Z,88.10
2019-05-17T19:44:57.917Z,88.40
2019-05-17T19:47:14.122Z,88.60
2019-05-17T19:49:40.935Z,88.90
2019-05-17T19:52:07.717Z,89.00
2019-05-17T19:54:35.571Z,89.20
2019-05-17T19:57:02.249Z,89.10
2019-05-17T19:59:28.937Z,89.40
2019-05-17T20:01:55.660Z,90.00
2019-05-17T20:04:22.533Z,90.00
2019-05-17T20:06:49.443Z,90.10
2019-05-17T20:09:16.384Z,90.10
2019-05-17T20:11:43.152Z,90.30
2019-05-17T20:14:09.936Z,90.30
2019-05-17T20:16:36.705Z,90.50
2019-05-17T20:19:03.647Z,90.60
2019-05-17T20:21:30.394Z,90.60
2019-05-17T20:23:57.154Z,90.40
2019-05-17T20:26:23.922Z,90.70
2019-05-17T20:28:50.793Z,90.80
2019-05-17T20:31:17.559Z,90.70
2019-05-17T20:33:44.433Z,90.80
2019-05-17T20:36:11.313Z,90.90
2019-05-17T20:38:38.108Z,90.90
2019-05-17T20:41:04.878Z,91.00
2019-05-17T20:43:31.786Z,90.90
2019-05-17T20:45:58.472Z,90.90
2019-05-17T20:48:26.080Z,90.80
2019-05-17T20:50:52.906Z,90.80
2019-05-17T20:53:20.814Z,91.10
2019-05-17T20:55:47.565Z,91.10
2019-05-17T20:58:14.325Z,91.10
2019-05-17T21:00:41.107Z,91.20
2019-05-17T21:03:07.972Z,91.70
2019-05-17T21:05:34.766Z,90.90
2019-05-17T21:08:01.591Z,90.80
2019-05-17T21:10:28.235Z,91.20
2019-05-17T21:12:54.977Z,91.40
2019-05-17T21:15:21.651Z,91.70
2019-05-17T21:17:48.326Z,91.50
2019-05-17T21:20:15.523Z,91.20
2019-05-17T21:22:42.403Z,91.30
2019-05-17T21:25:09.365Z,91.60
2019-05-17T21:27:36.149Z,91.40
2019-05-17T21:30:06.426Z,91.70
2019-05-17T21:32:33.206Z,91.50
2019-05-17T21:34:59.951Z,91.40
2019-05-17T21:37:26.723Z,91.40
2019-05-17T21:39:53.390Z,91.60
2019-05-17T21:42:20.267Z,91.80
2019-05-17T21:44:47.081Z,91.60
2019-05-17T21:47:13.800Z,91.50
2019-05-17T21:49:42.398Z,91.60
2019-05-17T21:52:09.066Z,91.80
2019-05-17T21:54:35.808Z,91.90
2019-05-17T21:57:02.610Z,92.10
2019-05-17T21:59:29.262Z,91.60
2019-05-17T22:01:56.606Z,91.80
2019-05-17T22:04:26.495Z,91.90
2019-05-17T22:06:52.128Z,91.60
2019-05-17T22:09:19.166Z,91.80
2019-05-17T22:11:47.805Z,91.70
2019-05-17T22:14:14.572Z,91.90
2019-05-17T22:16:41.823Z,92.10
2019-05-17T22:19:08.644Z,92.20
2019-05-17T22:21:35.605Z,92.20
2019-05-17T22:24:02.542Z,92.70
2019-05-17T22:26:29.312Z,92.60
2019-05-17T22:28:57.086Z,92.70
2019-05-17T22:31:23.936Z,92.80
2019-05-17T22:33:50.630Z,92.80
2019-05-17T22:36:17.381Z,93.00
2019-05-17T22:38:44.148Z,92.80
2019-05-17T22:41:10.924Z,92.80
2019-05-17T22:43:37.696Z,92.90
2019-05-17T22:46:04.576Z,93.00
2019-05-17T22:48:31.381Z,93.80
2019-05-17T22:50:58.272Z,93.50
2019-05-17T22:53:26.417Z,93.70
2019-05-17T22:55:53.108Z,93.80
2019-05-17T22:58:19.861Z,94.00
2019-05-17T23:00:46.739Z,93.80
2019-05-17T23:03:13.538Z,94.00
2019-05-17T23:05:40.516Z,94.70
2019-05-17T23:08:07.282Z,94.60
2019-05-17T23:10:35.139Z,94.90
2019-05-17T23:13:03.046Z,95.00
2019-05-17T23:15:31.611Z,94.70
2019-05-17T23:17:58.339Z,94.70
2019-05-17T23:20:25.085Z,95.20
2019-05-17T23:22:51.834Z,95.30
2019-05-17T23:25:18.817Z,95.40
2019-05-17T23:27:45.430Z,95.20
2019-05-17T23:30:12.460Z,95.30
2019-05-17T23:32:39.383Z,95.10
2019-05-17T23:35:06.276Z,95.00
2019-05-17T23:37:33.038Z,94.80
2019-05-17T23:39:59.853Z,95.00
2019-05-17T23:42:26.583Z,94.80
2019-05-17T23:44:53.318Z,94.90
2019-05-17T23:47:19.987Z,95.60
2019-05-17T23:49:46.884Z,95.80
2019-05-17T23:52:13.649Z,95.80
2019-05-17T23:54:40.487Z,96.00
2019-05-17T23:57:07.239Z,96.00
2019-05-17T23:59:33.990Z,95.90
